createdAt,value
2023-02-14T00:00:45.933Z,68.91
2023-02-14T00:03:14.129Z,68.95
2023-02-14T00:05:40.761Z,69.18
2023-02-14T00:08:07.512Z,69.31
2023-02-14T00:10:34.242Z,69.17
2023-02-14T00:13:00.890Z,68.10
2023-02-14T00:15:27.688Z,68.35
2023-02-14T00:17:56.565Z,68.46
2023-02-14T00:20:23.562Z,68.28
2023-02-14T00:22:50.247Z,68.70
2023-02-14T00:25:17.170Z,69.10
2023-02-14T00:27:44.047Z,68.70
2023-02-14T00:30:12.823Z,68.98
2023-02-14T00:32:40.582Z,68.96
2023-02-14T00:35:08.843Z,68.50
2023-02-14T00:37:35.519Z,68.69
2023-02-14T00:40:02.394Z,68.75
2023-02-14T00:42:29.089Z,68.53
2023-02-14T00:44:55.781Z,68.75
2023-02-14T00:47:22.683Z,68.41
2023-02-14T00:49:49.420Z,68.83
2023-02-14T00:52:16.114Z,68.41
2023-02-14T00:54:42.748Z,68.35
2023-02-14T00:57:09.418Z,68.23
2023-02-14T00:59:36.309Z,68.09
2023-02-14T01:02:04.255Z,66.83
2023-02-14T01:04:31.035Z,67.24
2023-02-14T01:07:00.812Z,67.52
2023-02-14T01:09:27.506Z,67.83
2023-02-14T01:11:54.313Z,68.38
2023-02-14T01:14:21.022Z,68.28
2023-02-14T01:16:49.561Z,68.19
2023-02-14T01:19:16.584Z,67.95
2023-02-14T01:21:43.727Z,68.03
2023-02-14T01:24:10.829Z,68.10
2023-02-14T01:26:37.604Z,67.89
2023-02-14T01:29:05.133Z,68.25
2023-02-14T01:31:34.168Z,68.13
2023-02-14T01:34:01.455Z,68.39
2023-02-14T01:36:32.073Z,68.01
2023-02-14T01:39:01.197Z,69.59
2023-02-14T01:41:33.056Z,69.25
2023-02-14T01:44:02.608Z,68.95
2023-02-14T01:46:34.603Z,68.69
2023-02-14T01:49:20.113Z,68.62
2023-02-14T01:51:53.321Z,68.85
2023-02-14T01:54:20.621Z,68.85
2023-02-14T01:56:52.168Z,68.67
2023-02-14T01:59:21.752Z,68.98
2023-02-14T02:01:53.457Z,68.75
2023-02-14T02:04:25.840Z,68.75
2023-02-14T02:06:59.684Z,68.60
2023-02-14T02:09:35.068Z,68.36
2023-02-14T02:12:11.095Z,68.18
2023-02-14T02:14:37.990Z,68.44
2023-02-14T02:17:20.606Z,68.78
2023-02-14T02:20:23.218Z,68.63
2023-02-14T02:22:55.644Z,68.36
2023-02-14T02:25:56.491Z,68.49
2023-02-14T02:29:08.674Z,69.10
2023-02-14T02:32:12.782Z,69.59
2023-02-14T02:34:57.748Z,69.09
2023-02-14T02:37:56.789Z,68.72
2023-02-14T02:40:33.372Z,68.60
2023-02-14T02:43:26.297Z,68.57
2023-02-14T02:46:18.031Z,68.70
2023-02-14T02:48:51.207Z,69.00
2023-02-14T02:51:52.957Z,68.86
2023-02-14T02:54:39.923Z,68.80
2023-02-14T02:57:12.426Z,69.06
2023-02-14T02:59:42.255Z,69.35
2023-02-14T03:02:21.631Z,69.19
2023-02-14T03:04:54.666Z,69.17
2023-02-14T03:07:36.229Z,70.43
2023-02-14T03:10:18.182Z,69.76
2023-02-14T03:13:09.766Z,69.41
2023-02-14T03:15:51.510Z,69.39
2023-02-14T03:18:48.064Z,69.33
2023-02-14T03:21:51.809Z,69.72
2023-02-14T03:24:45.580Z,69.52
2023-02-14T03:27:26.074Z,69.47
2023-02-14T03:30:09.864Z,69.78
2023-02-14T03:32:40.062Z,69.83
2023-02-14T03:35:31.033Z,70.07
2023-02-14T03:38:05.887Z,68.95
2023-02-14T03:40:35.922Z,68.78
2023-02-14T03:43:09.935Z,69.78
2023-02-14T03:45:49.153Z,71.09
2023-02-14T03:48:16.724Z,73.06
2023-02-14T03:50:46.104Z,73.28
2023-02-14T03:53:14.229Z,72.46
2023-02-14T03:55:47.126Z,72.12
2023-02-14T03:58:27.651Z,71.51
2023-02-14T04:00:59.775Z,71.78
2023-02-14T04:03:27.789Z,70.90
2023-02-14T04:05:54.848Z,69.97
2023-02-14T04:08:26.372Z,69.50
2023-02-14T04:10:53.850Z,70.58
2023-02-14T04:13:21.027Z,70.66
2023-02-14T04:15:47.786Z,71.04
2023-02-14T04:18:33.069Z,70.76
2023-02-14T04:21:00.041Z,71.32
2023-02-14T04:23:26.890Z,71.30
2023-02-14T04:25:53.713Z,71.57
2023-02-14T04:28:20.408Z,71.26
2023-02-14T04:30:47.064Z,71.32
2023-02-14T04:33:13.711Z,70.93
2023-02-14T04:35:40.336Z,71.18
2023-02-14T04:38:07.849Z,70.62
2023-02-14T04:40:34.459Z,70.59
2023-02-14T04:43:01.665Z,70.66
2023-02-14T04:45:28.299Z,70.58
2023-02-14T04:47:55.240Z,70.66
2023-02-14T04:50:23.618Z,70.95
2023-02-14T04:52:50.264Z,71.00
2023-02-14T04:55:17.001Z,71.77
2023-02-14T04:57:43.685Z,72.53
2023-02-14T05:00:11.303Z,71.99
2023-02-14T05:02:38.006Z,71.37
2023-02-14T05:05:05.036Z,71.71
2023-02-14T05:07:31.847Z,71.79
2023-02-14T05:09:58.578Z,71.85
2023-02-14T05:12:25.202Z,71.71
2023-02-14T05:14:51.863Z,71.35
2023-02-14T05:17:18.687Z,71.50
2023-02-14T05:19:45.439Z,71.30
2023-02-14T05:22:12.147Z,71.50
2023-02-14T05:24:39.086Z,71.59
2023-02-14T05:27:05.791Z,71.65
2023-02-14T05:29:32.475Z,71.20
2023-02-14T05:31:59.360Z,70.94
2023-02-14T05:34:26.114Z,71.22
2023-02-14T05:36:54.197Z,71.64
2023-02-14T05:39:20.998Z,71.37
2023-02-14T05:41:49.158Z,71.39
2023-02-14T05:44:15.982Z,70.67
2023-02-14T05:46:42.623Z,70.85
2023-02-14T05:49:09.311Z,71.34
2023-02-14T05:51:36.032Z,71.11
2023-02-14T05:54:02.644Z,71.78
2023-02-14T05:56:29.288Z,71.74
2023-02-14T05:58:55.983Z,71.57
2023-02-14T06:01:22.907Z,71.60
2023-02-14T06:03:49.560Z,72.05
2023-02-14T06:06:16.216Z,71.81
2023-02-14T06:08:42.867Z,70.93
2023-02-14T06:11:09.546Z,71.14
2023-02-14T06:13:36.182Z,71.82
2023-02-14T06:16:04.660Z,72.72
2023-02-14T06:18:37.489Z,72.17
2023-02-14T06:21:04.465Z,71.21
2023-02-14T06:23:31.084Z,71.41
2023-02-14T06:25:57.798Z,71.43
2023-02-14T06:28:24.473Z,71.75
2023-02-14T06:30:51.611Z,71.85
2023-02-14T06:33:18.303Z,72.39
2023-02-14T06:35:44.945Z,73.76
2023-02-14T06:38:11.565Z,73.84
2023-02-14T06:40:38.280Z,73.20
2023-02-14T06:43:05.551Z,73.09
2023-02-14T06:45:33.210Z,73.01
2023-02-14T06:48:00.495Z,72.96
2023-02-14T06:50:27.246Z,72.62
2023-02-14T06:52:53.975Z,71.90
2023-02-14T06:55:20.859Z,71.67
2023-02-14T06:57:47.667Z,71.56
2023-02-14T07:00:15.026Z,71.61
2023-02-14T07:02:42.749Z,71.37
2023-02-14T07:05:09.466Z,71.53
2023-02-14T07:07:36.247Z,69.97
2023-02-14T07:10:03.252Z,70.25
2023-02-14T07:12:30.110Z,70.86
2023-02-14T07:14:56.942Z,71.59
2023-02-14T07:17:23.597Z,70.89
2023-02-14T07:19:50.207Z,71.13
2023-02-14T07:22:16.953Z,71.35
2023-02-14T07:24:46.637Z,71.17
2023-02-14T07:27:13.411Z,70.15
2023-02-14T07:29:40.015Z,70.85
2023-02-14T07:32:07.770Z,70.67
2023-02-14T07:34:34.754Z,71.41
2023-02-14T07:37:01.983Z,72.06
2023-02-14T07:39:28.609Z,71.75
2023-02-14T07:41:55.221Z,71.14
2023-02-14T07:44:22.732Z,70.50
2023-02-14T07:46:49.470Z,70.50
2023-02-14T07:49:16.233Z,70.17
2023-02-14T07:51:42.860Z,70.90
2023-02-14T07:54:09.533Z,70.50
2023-02-14T07:56:36.223Z,70.41
2023-02-14T07:59:03.103Z,69.52
2023-02-14T08:01:29.801Z,69.42
2023-02-14T08:03:59.507Z,69.33
2023-02-14T08:06:28.031Z,68.45
2023-02-14T08:08:54.787Z,68.12
2023-02-14T08:11:39.950Z,67.72
2023-02-14T08:14:06.676Z,67.31
2023-02-14T08:16:34.776Z,68.14
2023-02-14T08:19:02.002Z,68.82
2023-02-14T08:21:28.720Z,67.92
2023-02-14T08:23:55.425Z,67.70
2023-02-14T08:26:22.076Z,68.06
2023-02-14T08:28:51.760Z,66.16
2023-02-14T08:31:34.333Z,65.07
2023-02-14T08:34:05.471Z,65.38
2023-02-14T08:36:32.785Z,65.65
2023-02-14T08:38:59.511Z,64.78
2023-02-14T08:41:26.306Z,64.63
2023-02-14T08:43:53.208Z,64.80
2023-02-14T08:46:19.994Z,65.88
2023-02-14T08:48:46.680Z,65.56
2023-02-14T08:51:14.600Z,64.68
2023-02-14T08:53:42.258Z,64.82
2023-02-14T08:56:13.569Z,64.49
2023-02-14T08:58:40.876Z,65.28
2023-02-14T09:01:13.220Z,64.20
2023-02-14T09:03:40.062Z,64.10
2023-02-14T09:06:09.237Z,63.44
2023-02-14T09:08:39.693Z,63.47
2023-02-14T09:11:18.903Z,64.44
2023-02-14T09:13:46.183Z,65.02
2023-02-14T09:16:14.468Z,65.11
2023-02-14T09:18:41.216Z,64.46
2023-02-14T09:21:15.223Z,64.75
2023-02-14T09:23:42.115Z,64.42
2023-02-14T09:26:10.989Z,63.92
2023-02-14T09:28:38.294Z,63.57
2023-02-14T09:31:17.392Z,63.04
2023-02-14T09:34:04.175Z,62.98
2023-02-14T09:36:49.454Z,63.03
2023-02-14T09:39:16.276Z,61.98
2023-02-14T09:42:10.755Z,63.21
2023-02-14T09:44:47.739Z,62.13
2023-02-14T09:47:37.447Z,63.26
2023-02-14T09:50:26.383Z,63.53
2023-02-14T09:52:57.707Z,63.22
2023-02-14T09:55:26.920Z,62.72
2023-02-14T09:58:12.395Z,61.90
2023-02-14T10:00:46.642Z,63.00
2023-02-14T10:03:22.318Z,63.45
2023-02-14T10:05:56.965Z,61.48
2023-02-14T10:08:42.059Z,62.50
2023-02-14T10:11:20.348Z,62.54
2023-02-14T10:13:52.213Z,63.15
2023-02-14T10:16:27.175Z,63.33
2023-02-14T10:19:02.907Z,60.74
2023-02-14T10:21:37.465Z,61.66
2023-02-14T10:24:20.598Z,63.89
2023-02-14T10:26:48.736Z,62.97
2023-02-14T10:29:17.313Z,62.97
2023-02-14T10:31:55.961Z,63.26
2023-02-14T10:34:35.829Z,62.54
2023-02-14T10:37:21.155Z,62.63
2023-02-14T10:39:57.595Z,62.54
2023-02-14T10:42:44.550Z,62.68
2023-02-14T10:45:39.688Z,67.79
2023-02-14T10:48:24.622Z,64.49
2023-02-14T10:51:12.922Z,62.73
2023-02-14T10:54:25.909Z,63.92
2023-02-14T10:57:00.313Z,63.55
2023-02-14T10:59:39.349Z,62.63
2023-02-14T11:02:06.517Z,63.43
2023-02-14T11:04:33.244Z,62.67
2023-02-14T11:06:59.903Z,61.86
2023-02-14T11:09:26.653Z,62.06
2023-02-14T11:11:55.932Z,61.84
2023-02-14T11:14:32.652Z,61.68
2023-02-14T11:17:00.841Z,62.55
2023-02-14T11:19:36.855Z,61.88
2023-02-14T11:22:04.480Z,61.45
2023-02-14T11:24:41.553Z,61.44
2023-02-14T11:27:17.556Z,61.66
2023-02-14T11:29:48.262Z,62.05
2023-02-14T11:32:23.760Z,62.59
2023-02-14T11:34:53.968Z,62.51
2023-02-14T11:37:23.507Z,61.36
2023-02-14T11:39:50.912Z,62.46
2023-02-14T11:42:36.251Z,63.60
2023-02-14T11:45:05.344Z,64.32
2023-02-14T11:47:34.697Z,64.06
2023-02-14T11:50:06.221Z,62.64
2023-02-14T11:52:34.087Z,62.59
2023-02-14T11:55:01.242Z,62.67
2023-02-14T11:57:33.077Z,63.19
2023-02-14T12:00:02.232Z,62.76
2023-02-14T12:02:41.710Z,62.78
2023-02-14T12:05:28.680Z,63.64
2023-02-14T12:08:00.958Z,63.38
2023-02-14T12:10:30.930Z,64.38
2023-02-14T12:13:09.577Z,63.66
2023-02-14T12:15:40.579Z,62.26
2023-02-14T12:18:47.827Z,63.79
2023-02-14T12:21:26.156Z,63.30
2023-02-14T12:24:04.713Z,62.73
2023-02-14T12:26:55.484Z,62.32
2023-02-14T12:29:40.324Z,63.57
2023-02-14T12:32:27.561Z,62.86
2023-02-14T12:35:19.108Z,62.85
2023-02-14T12:37:56.002Z,61.84
2023-02-14T12:41:00.949Z,62.06
2023-02-14T12:43:50.944Z,62.43
2023-02-14T12:46:21.246Z,62.37
2023-02-14T12:49:00.316Z,61.05
2023-02-14T12:51:54.509Z,61.88
2023-02-14T12:54:39.967Z,63.00
2023-02-14T12:57:27.402Z,63.55
2023-02-14T13:00:09.537Z,61.84
2023-02-14T13:03:01.581Z,62.11
2023-02-14T13:05:41.941Z,62.61
2023-02-14T13:08:27.609Z,62.06
2023-02-14T13:11:07.564Z,61.48
2023-02-14T13:14:05.048Z,63.05
2023-02-14T13:17:09.297Z,63.17
2023-02-14T13:20:01.764Z,61.79
2023-02-14T13:22:29.770Z,62.97
2023-02-14T13:24:59.909Z,61.82
2023-02-14T13:27:31.527Z,61.81
2023-02-14T13:30:01.266Z,61.90
2023-02-14T13:32:32.206Z,61.59
2023-02-14T13:34:59.308Z,61.66
2023-02-14T13:37:27.470Z,61.85
2023-02-14T13:39:56.734Z,61.78
2023-02-14T13:42:46.722Z,60.99
2023-02-14T13:45:37.576Z,61.67
2023-02-14T13:48:12.010Z,61.77
2023-02-14T13:50:41.484Z,62.35
2023-02-14T13:53:12.751Z,62.64
2023-02-14T13:55:44.069Z,61.25
2023-02-14T13:58:24.297Z,62.29
2023-02-14T14:00:52.927Z,62.47
2023-02-14T14:03:28.932Z,62.84
2023-02-14T14:06:10.868Z,62.41
2023-02-14T14:08:39.601Z,62.65
2023-02-14T14:11:12.652Z,62.28
2023-02-14T14:13:42.800Z,62.17
2023-02-14T14:16:27.763Z,62.12
2023-02-14T14:19:04.911Z,62.46
2023-02-14T14:21:35.461Z,62.09
2023-02-14T14:24:24.306Z,61.62
2023-02-14T14:27:18.570Z,62.28
2023-02-14T14:29:54.165Z,62.30
2023-02-14T14:32:30.620Z,63.17
2023-02-14T14:35:06.636Z,63.85
2023-02-14T14:37:35.577Z,65.00
2023-02-14T14:40:08.282Z,64.22
2023-02-14T14:42:37.444Z,63.48
2023-02-14T14:45:17.273Z,63.70
2023-02-14T14:47:45.540Z,63.97
2023-02-14T14:50:29.154Z,64.59
2023-02-14T14:52:58.153Z,62.76
2023-02-14T14:55:27.322Z,62.77
2023-02-14T14:57:59.612Z,63.44
2023-02-14T15:00:30.836Z,63.01
2023-02-14T15:03:01.407Z,62.20
2023-02-14T15:05:29.915Z,62.79
2023-02-14T15:07:58.428Z,63.59
2023-02-14T15:10:28.517Z,63.03
2023-02-14T15:13:16.286Z,61.90
2023-02-14T15:15:48.881Z,62.50
2023-02-14T15:18:15.690Z,62.98
2023-02-14T15:20:42.853Z,62.96
2023-02-14T15:23:18.115Z,62.99
2023-02-14T15:25:46.428Z,63.70
2023-02-14T15:28:17.516Z,63.92
2023-02-14T15:30:44.925Z,63.19
2023-02-14T15:33:11.906Z,62.44
2023-02-14T15:35:42.490Z,63.12
2023-02-14T15:38:10.937Z,63.04
2023-02-14T15:40:38.967Z,63.19
2023-02-14T15:43:17.827Z,63.59
2023-02-14T15:45:50.291Z,63.37
2023-02-14T15:48:19.294Z,62.92
2023-02-14T15:50:59.074Z,62.99
2023-02-14T15:53:31.982Z,62.83
2023-02-14T15:56:11.009Z,62.95
2023-02-14T15:58:38.774Z,63.18
2023-02-14T16:01:06.556Z,63.40
2023-02-14T16:03:37.152Z,63.81
2023-02-14T16:06:04.980Z,63.28
2023-02-14T16:08:40.136Z,63.07
2023-02-14T16:11:16.122Z,63.26
2023-02-14T16:13:44.999Z,63.69
2023-02-14T16:16:13.842Z,64.19
2023-02-14T16:18:43.557Z,63.43
2023-02-14T16:21:19.727Z,63.73
2023-02-14T16:23:48.263Z,63.35
2023-02-14T16:26:15.024Z,63.42
2023-02-14T16:28:43.528Z,63.82
2023-02-14T16:31:15.772Z,64.47
2023-02-14T16:33:42.763Z,64.25
2023-02-14T16:36:17.992Z,64.45
2023-02-14T16:38:45.756Z,64.29
2023-02-14T16:41:29.035Z,64.56
2023-02-14T16:43:56.522Z,63.36
2023-02-14T16:46:25.834Z,63.32
2023-02-14T16:48:53.016Z,63.75
2023-02-14T16:51:22.077Z,63.55
2023-02-14T16:53:49.040Z,62.89
2023-02-14T16:56:21.384Z,63.04
2023-02-14T16:58:48.304Z,63.95
2023-02-14T17:01:15.022Z,62.78
2023-02-14T17:03:42.968Z,62.46
2023-02-14T17:06:11.563Z,62.65
2023-02-14T17:08:39.977Z,63.51
2023-02-14T17:11:07.180Z,63.65
2023-02-14T17:13:35.742Z,62.98
2023-02-14T17:16:04.446Z,63.74
2023-02-14T17:18:31.751Z,64.30
2023-02-14T17:20:59.418Z,64.37
2023-02-14T17:23:26.778Z,63.39
2023-02-14T17:25:54.066Z,64.05
2023-02-14T17:28:21.968Z,64.25
2023-02-14T17:30:48.932Z,64.62
2023-02-14T17:33:15.960Z,63.90
2023-02-14T17:35:42.827Z,64.07
2023-02-14T17:38:09.950Z,64.36
2023-02-14T17:40:36.906Z,65.13
2023-02-14T17:43:04.036Z,65.04
2023-02-14T17:45:30.948Z,64.73
2023-02-14T17:47:57.740Z,64.93
2023-02-14T17:50:24.501Z,64.83
2023-02-14T17:52:55.560Z,64.78
2023-02-14T17:55:22.904Z,63.53
2023-02-14T17:57:52.638Z,63.95
2023-02-14T18:00:24.124Z,64.78
2023-02-14T18:02:50.844Z,64.84
2023-02-14T18:05:17.592Z,64.04
2023-02-14T18:07:44.562Z,64.13
2023-02-14T18:10:14.472Z,64.67
2023-02-14T18:12:41.350Z,64.88
2023-02-14T18:15:08.428Z,64.41
2023-02-14T18:17:35.120Z,64.13
2023-02-14T18:20:01.860Z,64.33
2023-02-14T18:22:28.813Z,64.90
2023-02-14T18:24:58.859Z,64.77
2023-02-14T18:27:26.204Z,65.94
2023-02-14T18:29:53.305Z,65.87
2023-02-14T18:32:20.334Z,65.63
2023-02-14T18:34:47.195Z,66.16
2023-02-14T18:37:14.322Z,66.13
2023-02-14T18:39:41.148Z,65.82
2023-02-14T18:42:07.789Z,65.17
2023-02-14T18:44:34.537Z,64.99
2023-02-14T18:47:02.151Z,65.80
2023-02-14T18:49:28.975Z,65.47
2023-02-14T18:51:57.411Z,64.72
2023-02-14T18:54:24.478Z,64.43
2023-02-14T18:56:51.296Z,65.45
2023-02-14T18:59:18.235Z,65.75
2023-02-14T19:01:45.552Z,65.65
2023-02-14T19:04:12.919Z,65.25
2023-02-14T19:06:41.176Z,65.20
2023-02-14T19:09:10.972Z,65.23
2023-02-14T19:11:37.788Z,65.27
2023-02-14T19:14:09.960Z,65.24
2023-02-14T19:16:42.186Z,65.23
2023-02-14T19:19:11.361Z,65.65
2023-02-14T19:21:38.231Z,66.57
2023-02-14T19:24:07.187Z,66.78
2023-02-14T19:26:37.794Z,66.46
2023-02-14T19:29:07.627Z,66.02
2023-02-14T19:31:37.574Z,65.95
2023-02-14T19:34:06.405Z,66.37
2023-02-14T19:36:36.380Z,65.64
2023-02-14T19:39:03.929Z,66.05
2023-02-14T19:41:34.481Z,65.57
2023-02-14T19:44:02.638Z,66.40
2023-02-14T19:46:29.596Z,66.37
2023-02-14T19:48:57.645Z,66.54
2023-02-14T19:51:26.596Z,66.50
2023-02-14T19:53:53.855Z,66.41
2023-02-14T19:56:25.978Z,66.12
2023-02-14T19:58:53.101Z,66.57
2023-02-14T20:01:43.078Z,66.87
2023-02-14T20:04:15.303Z,67.01
2023-02-14T20:06:43.244Z,66.62
2023-02-14T20:09:10.077Z,68.10
2023-02-14T20:11:46.801Z,67.93
2023-02-14T20:14:14.337Z,67.37
2023-02-14T20:16:41.305Z,67.80
2023-02-14T20:19:12.902Z,67.53
2023-02-14T20:21:41.903Z,67.62
2023-02-14T20:24:09.232Z,67.76
2023-02-14T20:26:37.375Z,67.84
2023-02-14T20:29:06.162Z,67.82
2023-02-14T20:31:34.232Z,66.78
2023-02-14T20:34:01.565Z,67.27
2023-02-14T20:36:28.735Z,67.44
2023-02-14T20:39:00.024Z,67.64
2023-02-14T20:41:27.866Z,67.62
2023-02-14T20:43:55.239Z,67.88
2023-02-14T20:46:22.537Z,67.61
2023-02-14T20:48:51.089Z,67.82
2023-02-14T20:51:19.997Z,67.00
2023-02-14T20:53:47.228Z,68.11
2023-02-14T20:56:14.716Z,67.84
2023-02-14T20:58:41.962Z,68.00
2023-02-14T21:01:17.275Z,67.20
2023-02-14T21:03:50.824Z,67.48
2023-02-14T21:06:20.618Z,67.65
2023-02-14T21:08:47.665Z,68.33
2023-02-14T21:11:16.449Z,68.15
2023-02-14T21:13:43.356Z,67.91
2023-02-14T21:16:12.495Z,67.97
2023-02-14T21:18:39.226Z,68.29
2023-02-14T21:21:14.539Z,67.80
2023-02-14T21:23:42.233Z,68.18
2023-02-14T21:26:09.672Z,67.67
2023-02-14T21:28:36.340Z,67.50
2023-02-14T21:31:08.256Z,67.59
2023-02-14T21:33:35.862Z,67.85
2023-02-14T21:36:13.796Z,67.86
2023-02-14T21:38:40.886Z,68.27
2023-02-14T21:41:10.326Z,67.89
2023-02-14T21:43:39.132Z,67.65
2023-02-14T21:46:07.478Z,67.63
2023-02-14T21:48:53.925Z,67.30
2023-02-14T21:51:20.939Z,67.17
2023-02-14T21:53:48.112Z,67.29
2023-02-14T21:56:18.080Z,67.67
2023-02-14T21:58:44.840Z,67.69
2023-02-14T22:01:22.557Z,67.41
2023-02-14T22:03:49.371Z,67.55
2023-02-14T22:06:16.329Z,67.56
2023-02-14T22:08:43.125Z,68.13
2023-02-14T22:11:15.516Z,68.15
2023-02-14T22:13:42.559Z,68.23
2023-02-14T22:16:15.214Z,68.09
2023-02-14T22:18:42.325Z,68.33
2023-02-14T22:21:14.383Z,68.58
2023-02-14T22:23:41.568Z,68.77
2023-02-14T22:26:18.525Z,68.63
2023-02-14T22:28:47.256Z,68.84
2023-02-14T22:31:15.393Z,68.88
2023-02-14T22:33:42.534Z,69.02
2023-02-14T22:36:09.531Z,69.10
2023-02-14T22:38:36.841Z,69.31
2023-02-14T22:41:21.868Z,69.39
2023-02-14T22:43:49.251Z,69.12
2023-02-14T22:46:27.475Z,69.37
2023-02-14T22:48:55.116Z,69.48
2023-02-14T22:51:26.169Z,69.66
2023-02-14T22:53:55.234Z,69.54
2023-02-14T22:56:24.273Z,69.57
2023-02-14T22:58:59.066Z,69.76
2023-02-14T23:01:26.028Z,69.92
2023-02-14T23:03:55.333Z,69.95
2023-02-14T23:06:23.281Z,69.93
2023-02-14T23:08:50.010Z,70.03
2023-02-14T23:11:18.826Z,70.08
2023-02-14T23:14:04.747Z,70.04
2023-02-14T23:16:49.982Z,70.11
2023-02-14T23:19:40.739Z,70.36
2023-02-14T23:22:20.581Z,70.48
2023-02-14T23:24:48.989Z,70.48
2023-02-14T23:27:17.621Z,70.49
2023-02-14T23:29:44.265Z,70.66
2023-02-14T23:32:10.967Z,70.67
2023-02-14T23:34:41.324Z,70.51
2023-02-14T23:37:08.641Z,70.61
2023-02-14T23:39:38.298Z,70.79
2023-02-14T23:42:13.543Z,71.03
2023-02-14T23:44:40.568Z,70.82
2023-02-14T23:47:08.902Z,70.69
2023-02-14T23:49:37.214Z,70.58
2023-02-14T23:52:06.605Z,70.44
2023-02-14T23:54:33.821Z,70.88
2023-02-14T23:57:00.625Z,70.62
2023-02-14T23:59:27.440Z,70.59
